sensor_id;sensor_type;location;lat;lon;timestamp;temperature;humidity
19085;DHT22;9675;51.538;6.728;2023-04-25T00:00:30;9.60;99.90
19085;DHT22;9675;51.538;6.728;2023-04-25T00:02:57;9.50;99.90
19085;DHT22;9675;51.538;6.728;2023-04-25T00:05:25;9.60;99.90
19085;DHT22;9675;51.538;6.728;2023-04-25T00:07:52;9.50;99.90
19085;DHT22;9675;51.538;6.728;2023-04-25T00:10:20;9.60;99.90
19085;DHT22;9675;51.538;6.728;2023-04-25T00:12:47;9.50;99.90
19085;DHT22;9675;51.538;6.728;2023-04-25T00:15:16;9.50;99.90
19085;DHT22;9675;51.538;6.728;2023-04-25T00:17:43;9.50;99.90
19085;DHT22;9675;51.538;6.728;2023-04-25T00:20:11;9.50;99.90
19085;DHT22;9675;51.538;6.728;2023-04-25T00:22:39;9.50;99.90
19085;DHT22;9675;51.538;6.728;2023-04-25T00:25:07;9.50;99.90
19085;DHT22;9675;51.538;6.728;2023-04-25T00:27:34;9.50;99.90
19085;DHT22;9675;51.538;6.728;2023-04-25T00:30:02;9.40;99.90
19085;DHT22;9675;51.538;6.728;2023-04-25T00:32:31;9.40;99.90
19085;DHT22;9675;51.538;6.728;2023-04-25T00:34:58;9.40;99.90
19085;DHT22;9675;51.538;6.728;2023-04-25T00:37:25;9.50;99.90
19085;DHT22;9675;51.538;6.728;2023-04-25T00:39:52;9.40;99.90
19085;DHT22;9675;51.538;6.728;2023-04-25T00:42:21;9.40;99.90
19085;DHT22;9675;51.538;6.728;2023-04-25T00:44:48;9.40;99.90
19085;DHT22;9675;51.538;6.728;2023-04-25T00:47:16;9.40;99.90
19085;DHT22;9675;51.538;6.728;2023-04-25T00:49:45;9.40;99.90
19085;DHT22;9675;51.538;6.728;2023-04-25T00:52:12;9.40;99.90
19085;DHT22;9675;51.538;6.728;2023-04-25T00:54:40;9.50;99.90
19085;DHT22;9675;51.538;6.728;2023-04-25T00:57:07;9.40;99.90
19085;DHT22;9675;51.538;6.728;2023-04-25T00:59:36;9.40;99.90
19085;DHT22;9675;51.538;6.728;2023-04-25T01:02:04;9.40;99.90
19085;DHT22;9675;51.538;6.728;2023-04-25T01:04:32;9.30;99.90
19085;DHT22;9675;51.538;6.728;2023-04-25T01:07:01;9.40;99.90
19085;DHT22;9675;51.538;6.728;2023-04-25T01:09:30;9.30;99.90
19085;DHT22;9675;51.538;6.728;2023-04-25T01:11:58;9.30;99.90
19085;DHT22;9675;51.538;6.728;2023-04-25T01:14:25;9.40;99.90
19085;DHT22;9675;51.538;6.728;2023-04-25T01:16:52;9.30;99.90
19085;DHT22;9675;51.538;6.728;2023-04-25T01:19:20;9.30;99.90
19085;DHT22;9675;51.538;6.728;2023-04-25T01:21:51;9.30;99.90
19085;DHT22;9675;51.538;6.728;2023-04-25T01:24:18;9.30;99.90
19085;DHT22;9675;51.538;6.728;2023-04-25T01:26:45;9.20;99.90
19085;DHT22;9675;51.538;6.728;2023-04-25T01:29:16;9.20;99.90
19085;DHT22;9675;51.538;6.728;2023-04-25T01:31:44;9.30;99.90
19085;DHT22;9675;51.538;6.728;2023-04-25T01:34:12;9.30;99.90
19085;DHT22;9675;51.538;6.728;2023-04-25T01:36:39;9.30;99.90
19085;DHT22;9675;51.538;6.728;2023-04-25T01:39:08;9.30;99.90
19085;DHT22;9675;51.538;6.728;2023-04-25T01:41:36;9.20;99.90
19085;DHT22;9675;51.538;6.728;2023-04-25T01:44:03;9.30;99.90
19085;DHT22;9675;51.538;6.728;2023-04-25T01:46:31;9.20;99.90
19085;DHT22;9675;51.538;6.728;2023-04-25T01:48:59;9.20;99.90
19085;DHT22;9675;51.538;6.728;2023-04-25T01:51:27;9.20;99.90
19085;DHT22;9675;51.538;6.728;2023-04-25T01:53:55;9.20;99.90
19085;DHT22;9675;51.538;6.728;2023-04-25T01:56:24;9.20;99.90
19085;DHT22;9675;51.538;6.728;2023-04-25T01:58:51;9.20;99.90
19085;DHT22;9675;51.538;6.728;2023-04-25T02:01:18;9.20;99.90
19085;DHT22;9675;51.538;6.728;2023-04-25T02:03:45;9.20;99.90
19085;DHT22;9675;51.538;6.728;2023-04-25T02:06:12;9.20;99.90
19085;DHT22;9675;51.538;6.728;2023-04-25T02:08:39;9.20;99.90
19085;DHT22;9675;51.538;6.728;2023-04-25T02:11:06;9.20;99.90
19085;DHT22;9675;51.538;6.728;2023-04-25T02:13:35;9.20;99.90
19085;DHT22;9675;51.538;6.728;2023-04-25T02:16:02;9.20;99.90
19085;DHT22;9675;51.538;6.728;2023-04-25T02:18:42;9.20;99.90
19085;DHT22;9675;51.538;6.728;2023-04-25T02:21:11;9.20;99.90
19085;DHT22;9675;51.538;6.728;2023-04-25T02:23:38;9.20;99.90
19085;DHT22;9675;51.538;6.728;2023-04-25T02:26:05;9.20;99.90
19085;DHT22;9675;51.538;6.728;2023-04-25T02:28:32;9.20;99.90
19085;DHT22;9675;51.538;6.728;2023-04-25T02:31:00;9.20;99.90
19085;DHT22;9675;51.538;6.728;2023-04-25T02:33:27;9.30;99.90
19085;DHT22;9675;51.538;6.728;2023-04-25T02:35:55;9.20;99.90
19085;DHT22;9675;51.538;6.728;2023-04-25T02:38:22;9.20;99.90
19085;DHT22;9675;51.538;6.728;2023-04-25T02:40:49;9.20;99.90
19085;DHT22;9675;51.538;6.728;2023-04-25T02:43:16;9.20;99.90
19085;DHT22;9675;51.538;6.728;2023-04-25T02:45:43;9.20;99.90
19085;DHT22;9675;51.538;6.728;2023-04-25T02:48:11;9.20;99.90
19085;DHT22;9675;51.538;6.728;2023-04-25T02:50:38;9.20;99.90
19085;DHT22;9675;51.538;6.728;2023-04-25T02:53:05;9.20;99.90
19085;DHT22;9675;51.538;6.728;2023-04-25T02:55:32;9.20;99.90
19085;DHT22;9675;51.538;6.728;2023-04-25T02:57:59;9.20;99.90
19085;DHT22;9675;51.538;6.728;2023-04-25T03:00:26;9.20;99.90
19085;DHT22;9675;51.538;6.728;2023-04-25T03:02:53;9.20;99.90
19085;DHT22;9675;51.538;6.728;2023-04-25T03:05:22;9.20;99.90
19085;DHT22;9675;51.538;6.728;2023-04-25T03:07:49;9.20;99.90
19085;DHT22;9675;51.538;6.728;2023-04-25T03:10:16;9.10;99.90
19085;DHT22;9675;51.538;6.728;2023-04-25T03:12:43;9.10;99.90
19085;DHT22;9675;51.538;6.728;2023-04-25T03:15:10;9.10;99.90
19085;DHT22;9675;51.538;6.728;2023-04-25T03:17:37;9.10;99.90
19085;DHT22;9675;51.538;6.728;2023-04-25T03:20:05;9.20;99.90
19085;DHT22;9675;51.538;6.728;2023-04-25T03:22:35;9.10;99.90
19085;DHT22;9675;51.538;6.728;2023-04-25T03:25:02;9.10;99.90
19085;DHT22;9675;51.538;6.728;2023-04-25T03:27:30;9.10;99.90
19085;DHT22;9675;51.538;6.728;2023-04-25T03:29:57;9.10;99.90
19085;DHT22;9675;51.538;6.728;2023-04-25T03:32:24;9.10;99.90
19085;DHT22;9675;51.538;6.728;2023-04-25T03:34:51;9.10;99.90
19085;DHT22;9675;51.538;6.728;2023-04-25T03:37:18;9.10;99.90
19085;DHT22;9675;51.538;6.728;2023-04-25T03:39:46;9.10;99.90
19085;DHT22;9675;51.538;6.728;2023-04-25T03:42:13;9.10;99.90
19085;DHT22;9675;51.538;6.728;2023-04-25T03:44:40;9.10;99.90
19085;DHT22;9675;51.538;6.728;2023-04-25T03:47:07;9.10;99.90
19085;DHT22;9675;51.538;6.728;2023-04-25T03:49:34;9.00;99.90
19085;DHT22;9675;51.538;6.728;2023-04-25T03:52:03;9.00;99.90
19085;DHT22;9675;51.538;6.728;2023-04-25T03:54:30;9.10;99.90
19085;DHT22;9675;51.538;6.728;2023-04-25T03:56:58;9.00;99.90
19085;DHT22;9675;51.538;6.728;2023-04-25T03:59:25;9.10;99.90
19085;DHT22;9675;51.538;6.728;2023-04-25T04:01:52;9.10;99.90
19085;DHT22;9675;51.538;6.728;2023-04-25T04:04:19;9.10;99.90
19085;DHT22;9675;51.538;6.728;2023-04-25T04:06:46;9.10;99.90
19085;DHT22;9675;51.538;6.728;2023-04-25T04:09:13;9.10;99.90
19085;DHT22;9675;51.538;6.728;2023-04-25T04:11:41;9.00;99.90
19085;DHT22;9675;51.538;6.728;2023-04-25T04:14:09;9.10;99.90
19085;DHT22;9675;51.538;6.728;2023-04-25T04:16:36;9.10;99.90
19085;DHT22;9675;51.538;6.728;2023-04-25T04:19:03;9.00;99.90
19085;DHT22;9675;51.538;6.728;2023-04-25T04:21:30;9.00;99.90
19085;DHT22;9675;51.538;6.728;2023-04-25T04:23:58;9.00;99.90
19085;DHT22;9675;51.538;6.728;2023-04-25T04:26:26;9.10;99.90
19085;DHT22;9675;51.538;6.728;2023-04-25T04:28:53;9.10;99.90
19085;DHT22;9675;51.538;6.728;2023-04-25T04:31:22;9.00;99.90
19085;DHT22;9675;51.538;6.728;2023-04-25T04:33:50;9.00;99.90
19085;DHT22;9675;51.538;6.728;2023-04-25T04:36:17;9.00;99.90
19085;DHT22;9675;51.538;6.728;2023-04-25T04:38:45;9.00;99.90
19085;DHT22;9675;51.538;6.728;2023-04-25T04:41:12;9.00;99.90
19085;DHT22;9675;51.538;6.728;2023-04-25T04:43:39;9.00;99.90
19085;DHT22;9675;51.538;6.728;2023-04-25T04:46:07;9.00;99.90
19085;DHT22;9675;51.538;6.728;2023-04-25T04:48:37;8.90;99.90
19085;DHT22;9675;51.538;6.728;2023-04-25T04:51:06;9.00;99.90
19085;DHT22;9675;51.538;6.728;2023-04-25T04:53:33;8.90;99.90
19085;DHT22;9675;51.538;6.728;2023-04-25T04:56:00;8.90;99.90
19085;DHT22;9675;51.538;6.728;2023-04-25T04:58:27;8.90;99.90
19085;DHT22;9675;51.538;6.728;2023-04-25T05:00:55;8.90;99.90
19085;DHT22;9675;51.538;6.728;2023-04-25T05:03:23;8.90;99.90
19085;DHT22;9675;51.538;6.728;2023-04-25T05:05:52;8.90;99.90
19085;DHT22;9675;51.538;6.728;2023-04-25T05:08:19;8.80;99.90
19085;DHT22;9675;51.538;6.728;2023-04-25T05:10:46;8.80;99.90
19085;DHT22;9675;51.538;6.728;2023-04-25T05:13:13;8.80;99.90
19085;DHT22;9675;51.538;6.728;2023-04-25T05:15:40;8.80;99.90
19085;DHT22;9675;51.538;6.728;2023-04-25T05:18:07;8.80;99.90
19085;DHT22;9675;51.538;6.728;2023-04-25T05:20:34;8.80;99.90
19085;DHT22;9675;51.538;6.728;2023-04-25T05:23:03;8.80;99.90
19085;DHT22;9675;51.538;6.728;2023-04-25T05:25:30;8.70;99.90
19085;DHT22;9675;51.538;6.728;2023-04-25T05:27:57;8.70;99.90
19085;DHT22;9675;51.538;6.728;2023-04-25T05:30:24;8.70;99.90
19085;DHT22;9675;51.538;6.728;2023-04-25T05:32:51;8.70;99.90
19085;DHT22;9675;51.538;6.728;2023-04-25T05:35:18;8.70;99.90
19085;DHT22;9675;51.538;6.728;2023-04-25T05:37:45;8.70;99.90
19085;DHT22;9675;51.538;6.728;2023-04-25T05:40:14;8.70;99.90
19085;DHT22;9675;51.538;6.728;2023-04-25T05:42:41;8.70;99.90
19085;DHT22;9675;51.538;6.728;2023-04-25T05:45:08;8.70;99.90
19085;DHT22;9675;51.538;6.728;2023-04-25T05:47:36;8.70;99.90
19085;DHT22;9675;51.538;6.728;2023-04-25T05:50:03;8.70;99.90
19085;DHT22;9675;51.538;6.728;2023-04-25T05:52:31;8.70;99.90
19085;DHT22;9675;51.538;6.728;2023-04-25T05:54:58;8.70;99.90
19085;DHT22;9675;51.538;6.728;2023-04-25T05:57:27;8.70;99.90
19085;DHT22;9675;51.538;6.728;2023-04-25T05:59:54;8.70;99.90
19085;DHT22;9675;51.538;6.728;2023-04-25T06:02:21;8.70;99.90
19085;DHT22;9675;51.538;6.728;2023-04-25T06:04:49;8.70;99.90
19085;DHT22;9675;51.538;6.728;2023-04-25T06:07:17;8.70;99.90
19085;DHT22;9675;51.538;6.728;2023-04-25T06:09:44;8.70;99.90
19085;DHT22;9675;51.538;6.728;2023-04-25T06:12:11;8.70;99.90
19085;DHT22;9675;51.538;6.728;2023-04-25T06:14:40;8.70;99.90
19085;DHT22;9675;51.538;6.728;2023-04-25T06:17:07;8.70;99.90
19085;DHT22;9675;51.538;6.728;2023-04-25T06:19:35;8.80;99.90
19085;DHT22;9675;51.538;6.728;2023-04-25T06:22:02;8.80;99.90
19085;DHT22;9675;51.538;6.728;2023-04-25T06:24:30;8.80;99.90
19085;DHT22;9675;51.538;6.728;2023-04-25T06:26:57;8.80;99.90
19085;DHT22;9675;51.538;6.728;2023-04-25T06:29:24;8.80;99.90
19085;DHT22;9675;51.538;6.728;2023-04-25T06:31:52;8.80;99.90
19085;DHT22;9675;51.538;6.728;2023-04-25T06:34:19;8.80;99.90
19085;DHT22;9675;51.538;6.728;2023-04-25T06:36:46;8.80;99.90
19085;DHT22;9675;51.538;6.728;2023-04-25T06:39:13;8.80;99.90
19085;DHT22;9675;51.538;6.728;2023-04-25T06:41:40;8.80;99.90
19085;DHT22;9675;51.538;6.728;2023-04-25T06:44:07;8.90;99.90
19085;DHT22;9675;51.538;6.728;2023-04-25T06:46:34;8.90;99.90
19085;DHT22;9675;51.538;6.728;2023-04-25T06:49:04;8.90;99.90
19085;DHT22;9675;51.538;6.728;2023-04-25T06:51:31;8.90;99.90
19085;DHT22;9675;51.538;6.728;2023-04-25T06:53:58;8.90;99.90
19085;DHT22;9675;51.538;6.728;2023-04-25T06:56:25;8.90;99.90
19085;DHT22;9675;51.538;6.728;2023-04-25T06:58:53;8.90;99.90
19085;DHT22;9675;51.538;6.728;2023-04-25T07:01:20;8.90;99.90
19085;DHT22;9675;51.538;6.728;2023-04-25T07:03:47;9.00;99.90
19085;DHT22;9675;51.538;6.728;2023-04-25T07:06:16;9.00;99.90
19085;DHT22;9675;51.538;6.728;2023-04-25T07:08:43;9.00;99.90
19085;DHT22;9675;51.538;6.728;2023-04-25T07:11:10;9.00;99.90
19085;DHT22;9675;51.538;6.728;2023-04-25T07:13:37;9.00;99.90
19085;DHT22;9675;51.538;6.728;2023-04-25T07:16:04;9.00;99.90
19085;DHT22;9675;51.538;6.728;2023-04-25T07:18:31;9.10;99.90
19085;DHT22;9675;51.538;6.728;2023-04-25T07:20:58;9.10;99.90
19085;DHT22;9675;51.538;6.728;2023-04-25T07:23:27;9.10;99.90
19085;DHT22;9675;51.538;6.728;2023-04-25T07:25:54;9.20;99.90
19085;DHT22;9675;51.538;6.728;2023-04-25T07:28:21;9.20;99.90
19085;DHT22;9675;51.538;6.728;2023-04-25T07:30:48;9.20;99.90
19085;DHT22;9675;51.538;6.728;2023-04-25T07:33:15;9.30;99.90
19085;DHT22;9675;51.538;6.728;2023-04-25T07:35:42;9.30;99.90
19085;DHT22;9675;51.538;6.728;2023-04-25T07:38:09;9.30;99.90
19085;DHT22;9675;51.538;6.728;2023-04-25T07:40:38;9.40;99.90
19085;DHT22;9675;51.538;6.728;2023-04-25T07:43:05;9.40;99.90
19085;DHT22;9675;51.538;6.728;2023-04-25T07:45:32;9.40;99.90
19085;DHT22;9675;51.538;6.728;2023-04-25T07:47:59;9.40;99.90
19085;DHT22;9675;51.538;6.728;2023-04-25T07:50:26;9.50;99.90
19085;DHT22;9675;51.538;6.728;2023-04-25T07:52:53;9.50;99.90
19085;DHT22;9675;51.538;6.728;2023-04-25T07:55:19;9.50;99.90
19085;DHT22;9675;51.538;6.728;2023-04-25T07:57:48;9.60;99.90
19085;DHT22;9675;51.538;6.728;2023-04-25T08:00:15;9.60;99.90
19085;DHT22;9675;51.538;6.728;2023-04-25T08:02:43;9.70;99.90
19085;DHT22;9675;51.538;6.728;2023-04-25T08:05:10;9.70;99.90
19085;DHT22;9675;51.538;6.728;2023-04-25T08:07:39;9.70;99.90
19085;DHT22;9675;51.538;6.728;2023-04-25T08:10:07;9.70;99.90
19085;DHT22;9675;51.538;6.728;2023-04-25T08:12:35;9.80;99.90
19085;DHT22;9675;51.538;6.728;2023-04-25T08:15:04;9.80;99.90
19085;DHT22;9675;51.538;6.728;2023-04-25T08:17:32;9.90;99.90
19085;DHT22;9675;51.538;6.728;2023-04-25T08:19:59;9.90;99.90
19085;DHT22;9675;51.538;6.728;2023-04-25T08:22:28;9.90;99.90
19085;DHT22;9675;51.538;6.728;2023-04-25T08:24:56;10.00;99.90
19085;DHT22;9675;51.538;6.728;2023-04-25T08:27:23;10.00;99.90
19085;DHT22;9675;51.538;6.728;2023-04-25T08:29:50;10.00;99.90
19085;DHT22;9675;51.538;6.728;2023-04-25T08:32:18;10.10;99.90
19085;DHT22;9675;51.538;6.728;2023-04-25T08:34:47;10.10;99.90
19085;DHT22;9675;51.538;6.728;2023-04-25T08:37:13;10.10;99.90
19085;DHT22;9675;51.538;6.728;2023-04-25T08:39:41;10.20;99.90
19085;DHT22;9675;51.538;6.728;2023-04-25T08:42:08;10.20;99.90
19085;DHT22;9675;51.538;6.728;2023-04-25T08:44:36;10.30;99.90
19085;DHT22;9675;51.538;6.728;2023-04-25T08:47:04;10.30;99.90
19085;DHT22;9675;51.538;6.728;2023-04-25T08:49:33;10.30;99.90
19085;DHT22;9675;51.538;6.728;2023-04-25T08:52:04;10.40;99.90
19085;DHT22;9675;51.538;6.728;2023-04-25T08:54:32;10.40;99.90
19085;DHT22;9675;51.538;6.728;2023-04-25T08:57:01;10.50;99.90
19085;DHT22;9675;51.538;6.728;2023-04-25T08:59:30;10.50;99.90
19085;DHT22;9675;51.538;6.728;2023-04-25T09:01:57;10.50;99.90
19085;DHT22;9675;51.538;6.728;2023-04-25T09:04:24;10.60;99.90
19085;DHT22;9675;51.538;6.728;2023-04-25T09:06:53;10.60;99.90
19085;DHT22;9675;51.538;6.728;2023-04-25T09:09:20;10.70;99.90
19085;DHT22;9675;51.538;6.728;2023-04-25T09:11:47;10.70;99.90
19085;DHT22;9675;51.538;6.728;2023-04-25T09:14:16;10.80;99.90
19085;DHT22;9675;51.538;6.728;2023-04-25T09:16:59;10.80;99.90
19085;DHT22;9675;51.538;6.728;2023-04-25T09:19:29;10.90;99.90
19085;DHT22;9675;51.538;6.728;2023-04-25T09:21:59;11.00;99.90
19085;DHT22;9675;51.538;6.728;2023-04-25T09:24:33;11.00;99.90
19085;DHT22;9675;51.538;6.728;2023-04-25T09:27:03;11.10;99.90
19085;DHT22;9675;51.538;6.728;2023-04-25T09:29:32;11.20;99.90
19085;DHT22;9675;51.538;6.728;2023-04-25T09:32:19;11.20;99.90
19085;DHT22;9675;51.538;6.728;2023-04-25T09:34:49;11.30;99.90
19085;DHT22;9675;51.538;6.728;2023-04-25T09:37:19;11.30;99.90
19085;DHT22;9675;51.538;6.728;2023-04-25T09:39:48;11.50;99.90
19085;DHT22;9675;51.538;6.728;2023-04-25T09:42:16;11.50;99.90
19085;DHT22;9675;51.538;6.728;2023-04-25T09:44:45;11.60;99.90
19085;DHT22;9675;51.538;6.728;2023-04-25T09:47:14;11.70;99.90
19085;DHT22;9675;51.538;6.728;2023-04-25T09:49:43;11.80;99.90
19085;DHT22;9675;51.538;6.728;2023-04-25T09:52:15;11.90;99.90
19085;DHT22;9675;51.538;6.728;2023-04-25T09:54:44;11.90;99.90
19085;DHT22;9675;51.538;6.728;2023-04-25T09:57:14;12.10;99.90
19085;DHT22;9675;51.538;6.728;2023-04-25T09:59:46;12.20;99.90
19085;DHT22;9675;51.538;6.728;2023-04-25T10:02:15;12.30;99.90
19085;DHT22;9675;51.538;6.728;2023-04-25T10:04:48;12.50;99.90
19085;DHT22;9675;51.538;6.728;2023-04-25T10:07:18;12.60;99.90
19085;DHT22;9675;51.538;6.728;2023-04-25T10:09:48;12.70;99.90
19085;DHT22;9675;51.538;6.728;2023-04-25T10:12:16;12.80;99.90
19085;DHT22;9675;51.538;6.728;2023-04-25T10:14:44;12.90;99.90
19085;DHT22;9675;51.538;6.728;2023-04-25T10:17:14;12.90;99.90
19085;DHT22;9675;51.538;6.728;2023-04-25T10:19:41;12.90;99.90
19085;DHT22;9675;51.538;6.728;2023-04-25T10:22:13;13.00;99.90
19085;DHT22;9675;51.538;6.728;2023-04-25T10:24:44;13.10;99.90
19085;DHT22;9675;51.538;6.728;2023-04-25T10:27:14;13.10;99.90
19085;DHT22;9675;51.538;6.728;2023-04-25T10:29:41;13.20;99.90
19085;DHT22;9675;51.538;6.728;2023-04-25T10:32:09;13.20;99.90
19085;DHT22;9675;51.538;6.728;2023-04-25T10:34:41;13.20;99.90
19085;DHT22;9675;51.538;6.728;2023-04-25T10:37:10;13.20;99.90
19085;DHT22;9675;51.538;6.728;2023-04-25T10:39:39;13.20;99.90
19085;DHT22;9675;51.538;6.728;2023-04-25T10:42:08;13.20;99.90
19085;DHT22;9675;51.538;6.728;2023-04-25T10:44:37;13.10;99.90
19085;DHT22;9675;51.538;6.728;2023-04-25T10:47:07;13.10;99.90
19085;DHT22;9675;51.538;6.728;2023-04-25T10:49:37;13.20;99.90
19085;DHT22;9675;51.538;6.728;2023-04-25T10:52:12;13.20;99.90
19085;DHT22;9675;51.538;6.728;2023-04-25T10:54:46;13.20;99.90
19085;DHT22;9675;51.538;6.728;2023-04-25T10:57:32;13.20;99.90
19085;DHT22;9675;51.538;6.728;2023-04-25T11:00:10;13.20;99.90
19085;DHT22;9675;51.538;6.728;2023-04-25T11:02:44;13.20;99.90
19085;DHT22;9675;51.538;6.728;2023-04-25T11:05:24;13.20;99.90
19085;DHT22;9675;51.538;6.728;2023-04-25T11:07:58;13.20;99.90
19085;DHT22;9675;51.538;6.728;2023-04-25T11:10:26;13.20;99.90
19085;DHT22;9675;51.538;6.728;2023-04-25T11:12:54;13.30;99.90
19085;DHT22;9675;51.538;6.728;2023-04-25T11:15:23;13.30;99.90
19085;DHT22;9675;51.538;6.728;2023-04-25T11:17:51;13.30;99.90
19085;DHT22;9675;51.538;6.728;2023-04-25T11:20:19;13.30;99.90
19085;DHT22;9675;51.538;6.728;2023-04-25T11:22:47;13.30;99.90
19085;DHT22;9675;51.538;6.728;2023-04-25T11:25:15;13.20;99.90
19085;DHT22;9675;51.538;6.728;2023-04-25T11:27:51;13.20;99.90
19085;DHT22;9675;51.538;6.728;2023-04-25T11:30:20;13.30;99.90
19085;DHT22;9675;51.538;6.728;2023-04-25T11:32:51;13.30;99.90
19085;DHT22;9675;51.538;6.728;2023-04-25T11:35:18;13.30;99.90
19085;DHT22;9675;51.538;6.728;2023-04-25T11:37:45;13.30;99.90
19085;DHT22;9675;51.538;6.728;2023-04-25T11:40:13;13.30;99.90
19085;DHT22;9675;51.538;6.728;2023-04-25T11:42:45;13.30;99.90
19085;DHT22;9675;51.538;6.728;2023-04-25T11:45:14;13.30;99.90
19085;DHT22;9675;51.538;6.728;2023-04-25T11:47:43;13.30;99.90
19085;DHT22;9675;51.538;6.728;2023-04-25T11:50:10;13.30;99.90
19085;DHT22;9675;51.538;6.728;2023-04-25T11:52:38;13.40;99.90
19085;DHT22;9675;51.538;6.728;2023-04-25T11:55:07;13.40;99.90
19085;DHT22;9675;51.538;6.728;2023-04-25T11:57:37;13.40;99.90
19085;DHT22;9675;51.538;6.728;2023-04-25T12:00:09;13.40;99.90
19085;DHT22;9675;51.538;6.728;2023-04-25T12:02:41;13.40;99.90
19085;DHT22;9675;51.538;6.728;2023-04-25T12:05:15;13.50;99.90
19085;DHT22;9675;51.538;6.728;2023-04-25T12:07:42;13.40;99.90
19085;DHT22;9675;51.538;6.728;2023-04-25T12:10:11;13.40;99.90
19085;DHT22;9675;51.538;6.728;2023-04-25T12:12:42;13.40;99.90
19085;DHT22;9675;51.538;6.728;2023-04-25T12:15:12;13.40;99.90
19085;DHT22;9675;51.538;6.728;2023-04-25T12:17:44;13.50;99.90
19085;DHT22;9675;51.538;6.728;2023-04-25T12:20:14;13.50;99.90
19085;DHT22;9675;51.538;6.728;2023-04-25T12:22:42;13.60;99.90
19085;DHT22;9675;51.538;6.728;2023-04-25T12:25:12;13.70;99.90
19085;DHT22;9675;51.538;6.728;2023-04-25T12:27:40;13.80;99.90
19085;DHT22;9675;51.538;6.728;2023-04-25T12:30:08;13.90;99.90
19085;DHT22;9675;51.538;6.728;2023-04-25T12:32:37;14.00;99.90
19085;DHT22;9675;51.538;6.728;2023-04-25T12:35:06;14.10;99.90
19085;DHT22;9675;51.538;6.728;2023-04-25T12:37:34;14.10;99.90
19085;DHT22;9675;51.538;6.728;2023-04-25T12:40:01;14.20;99.90
19085;DHT22;9675;51.538;6.728;2023-04-25T12:42:29;14.20;99.90
19085;DHT22;9675;51.538;6.728;2023-04-25T12:44:56;14.20;99.90
19085;DHT22;9675;51.538;6.728;2023-04-25T12:47:23;14.20;99.90
19085;DHT22;9675;51.538;6.728;2023-04-25T12:49:50;14.20;99.90
19085;DHT22;9675;51.538;6.728;2023-04-25T12:52:19;14.10;99.90
19085;DHT22;9675;51.538;6.728;2023-04-25T12:54:46;14.10;99.90
19085;DHT22;9675;51.538;6.728;2023-04-25T12:57:13;14.10;99.90
19085;DHT22;9675;51.538;6.728;2023-04-25T12:59:40;14.10;99.90
19085;DHT22;9675;51.538;6.728;2023-04-25T13:02:07;14.10;99.90
19085;DHT22;9675;51.538;6.728;2023-04-25T13:04:34;14.10;99.90
19085;DHT22;9675;51.538;6.728;2023-04-25T13:07:01;14.20;99.90
19085;DHT22;9675;51.538;6.728;2023-04-25T13:09:30;14.30;99.90
19085;DHT22;9675;51.538;6.728;2023-04-25T13:11:57;14.30;99.90
19085;DHT22;9675;51.538;6.728;2023-04-25T13:14:24;14.30;99.90
19085;DHT22;9675;51.538;6.728;2023-04-25T13:16:51;14.30;99.90
19085;DHT22;9675;51.538;6.728;2023-04-25T13:19:20;14.30;99.90
19085;DHT22;9675;51.538;6.728;2023-04-25T13:21:47;14.40;99.90
19085;DHT22;9675;51.538;6.728;2023-04-25T13:24:14;14.40;99.90
19085;DHT22;9675;51.538;6.728;2023-04-25T13:26:42;14.40;99.90
19085;DHT22;9675;51.538;6.728;2023-04-25T13:29:09;14.50;99.90
19085;DHT22;9675;51.538;6.728;2023-04-25T13:31:36;14.50;99.90
19085;DHT22;9675;51.538;6.728;2023-04-25T13:34:04;14.60;99.90
19085;DHT22;9675;51.538;6.728;2023-04-25T13:36:31;14.60;99.90
19085;DHT22;9675;51.538;6.728;2023-04-25T13:38:58;14.60;99.90
19085;DHT22;9675;51.538;6.728;2023-04-25T13:41:28;14.60;99.90
19085;DHT22;9675;51.538;6.728;2023-04-25T13:43:57;14.70;99.90
19085;DHT22;9675;51.538;6.728;2023-04-25T13:46:24;14.70;99.90
19085;DHT22;9675;51.538;6.728;2023-04-25T13:48:51;14.70;99.90
19085;DHT22;9675;51.538;6.728;2023-04-25T13:51:18;14.80;99.90
19085;DHT22;9675;51.538;6.728;2023-04-25T13:53:46;14.90;99.90
19085;DHT22;9675;51.538;6.728;2023-04-25T13:56:13;14.90;99.90
19085;DHT22;9675;51.538;6.728;2023-04-25T13:58:40;15.00;99.90
19085;DHT22;9675;51.538;6.728;2023-04-25T14:01:08;15.00;99.90
19085;DHT22;9675;51.538;6.728;2023-04-25T14:03:35;15.00;99.90
19085;DHT22;9675;51.538;6.728;2023-04-25T14:06:02;15.10;99.90
19085;DHT22;9675;51.538;6.728;2023-04-25T14:08:30;15.10;99.90
19085;DHT22;9675;51.538;6.728;2023-04-25T14:10:57;15.10;99.90
19085;DHT22;9675;51.538;6.728;2023-04-25T14:13:24;15.10;99.90
19085;DHT22;9675;51.538;6.728;2023-04-25T14:15:51;15.20;99.90
19085;DHT22;9675;51.538;6.728;2023-04-25T14:18:19;15.10;99.90
19085;DHT22;9675;51.538;6.728;2023-04-25T14:20:47;15.10;99.90
19085;DHT22;9675;51.538;6.728;2023-04-25T14:23:14;15.20;99.90
19085;DHT22;9675;51.538;6.728;2023-04-25T14:25:43;15.20;99.90
19085;DHT22;9675;51.538;6.728;2023-04-25T14:28:10;15.20;99.90
19085;DHT22;9675;51.538;6.728;2023-04-25T14:30:37;15.10;99.90
19085;DHT22;9675;51.538;6.728;2023-04-25T14:33:04;15.10;99.90
19085;DHT22;9675;51.538;6.728;2023-04-25T14:35:33;15.20;99.90
19085;DHT22;9675;51.538;6.728;2023-04-25T14:38:00;15.10;99.90
19085;DHT22;9675;51.538;6.728;2023-04-25T14:40:27;15.10;99.90
19085;DHT22;9675;51.538;6.728;2023-04-25T14:42:54;15.20;99.90
19085;DHT22;9675;51.538;6.728;2023-04-25T14:45:21;15.10;99.90
19085;DHT22;9675;51.538;6.728;2023-04-25T14:47:48;15.10;99.90
19085;DHT22;9675;51.538;6.728;2023-04-25T14:50:15;15.10;99.90
19085;DHT22;9675;51.538;6.728;2023-04-25T14:52:44;15.10;99.90
19085;DHT22;9675;51.538;6.728;2023-04-25T14:55:11;15.10;99.90
19085;DHT22;9675;51.538;6.728;2023-04-25T14:57:38;15.00;99.90
19085;DHT22;9675;51.538;6.728;2023-04-25T15:00:06;15.10;99.90
19085;DHT22;9675;51.538;6.728;2023-04-25T15:02:35;15.10;99.90
19085;DHT22;9675;51.538;6.728;2023-04-25T15:05:02;15.00;99.90
19085;DHT22;9675;51.538;6.728;2023-04-25T15:07:30;15.10;99.90
19085;DHT22;9675;51.538;6.728;2023-04-25T15:09:58;15.10;99.90
19085;DHT22;9675;51.538;6.728;2023-04-25T15:12:25;15.10;99.90
19085;DHT22;9675;51.538;6.728;2023-04-25T15:14:53;15.10;99.90
19085;DHT22;9675;51.538;6.728;2023-04-25T15:17:21;15.10;99.90
19085;DHT22;9675;51.538;6.728;2023-04-25T15:19:48;15.10;99.90
19085;DHT22;9675;51.538;6.728;2023-04-25T15:22:15;15.10;99.90
19085;DHT22;9675;51.538;6.728;2023-04-25T15:24:42;15.10;99.90
19085;DHT22;9675;51.538;6.728;2023-04-25T15:27:10;15.20;99.90
19085;DHT22;9675;51.538;6.728;2023-04-25T15:29:38;15.20;99.90
19085;DHT22;9675;51.538;6.728;2023-04-25T15:32:06;15.20;99.90
19085;DHT22;9675;51.538;6.728;2023-04-25T15:34:33;15.20;99.90
19085;DHT22;9675;51.538;6.728;2023-04-25T15:37:00;15.20;99.90
19085;DHT22;9675;51.538;6.728;2023-04-25T15:39:27;15.20;99.90
19085;DHT22;9675;51.538;6.728;2023-04-25T15:41:54;15.20;99.90
19085;DHT22;9675;51.538;6.728;2023-04-25T15:44:23;15.20;99.90
19085;DHT22;9675;51.538;6.728;2023-04-25T15:46:51;15.10;99.90
19085;DHT22;9675;51.538;6.728;2023-04-25T15:49:18;15.10;99.90
19085;DHT22;9675;51.538;6.728;2023-04-25T15:51:46;15.10;99.90
19085;DHT22;9675;51.538;6.728;2023-04-25T15:54:13;15.10;99.90
19085;DHT22;9675;51.538;6.728;2023-04-25T15:56:40;15.10;99.90
19085;DHT22;9675;51.538;6.728;2023-04-25T15:59:07;15.00;99.90